Terminal Aerodrome Forecast
Issued by NWS

Home | Current Version | Previous Version | Text Only | Print | Product List | Glossary On
Versions: 1 2 3 4 5 6 7 8 9 10 11 12 13 14 15 16 17
000
FTUS43 KGRB 090544
TAFRHI
TAF
KRHI 090544Z 0906/1006 30006KT P6SM -SN SCT025 BKN045
      TEMPO 0906/0910 3SM -SN BKN025
     FM091500 28008G14KT P6SM BKN030
     FM100100 27008KT P6SM SCT040=

USA.gov is the U.S. government's official web portal to all federal, state and local government web resources and services.